sensor_id;sensor_type;location;lat;lon;timestamp;P1;durP1;ratioP1;P2;durP2;ratioP2
53293;SDS011;39181;53.440;5.644;2023-01-25T00:01:59;28.25;;;16.58;;
53293;SDS011;39181;53.440;5.644;2023-01-25T00:04:25;29.08;;;17.10;;
53293;SDS011;39181;53.440;5.644;2023-01-25T00:06:50;33.03;;;19.08;;
53293;SDS011;39181;53.440;5.644;2023-01-25T00:09:16;30.80;;;17.75;;
53293;SDS011;39181;53.440;5.644;2023-01-25T00:11:43;29.02;;;17.50;;
53293;SDS011;39181;53.440;5.644;2023-01-25T00:14:09;33.35;;;18.40;;
53293;SDS011;39181;53.440;5.644;2023-01-25T00:16:38;31.88;;;17.38;;
53293;SDS011;39181;53.440;5.644;2023-01-25T00:19:05;30.20;;;17.80;;
53293;SDS011;39181;53.440;5.644;2023-01-25T00:21:31;31.38;;;18.20;;
53293;SDS011;39181;53.440;5.644;2023-01-25T00:24:01;33.63;;;19.52;;
53293;SDS011;39181;53.440;5.644;2023-01-25T00:26:30;34.35;;;19.55;;
53293;SDS011;39181;53.440;5.644;2023-01-25T00:28:56;32.70;;;17.55;;
53293;SDS011;39181;53.440;5.644;2023-01-25T00:31:26;30.00;;;16.98;;
53293;SDS011;39181;53.440;5.644;2023-01-25T00:34:00;32.67;;;17.92;;
53293;SDS011;39181;53.440;5.644;2023-01-25T00:36:44;32.80;;;17.88;;
53293;SDS011;39181;53.440;5.644;2023-01-25T00:39:11;33.40;;;18.88;;
53293;SDS011;39181;53.440;5.644;2023-01-25T00:41:37;33.03;;;18.17;;
53293;SDS011;39181;53.440;5.644;2023-01-25T00:44:03;36.95;;;20.15;;
53293;SDS011;39181;53.440;5.644;2023-01-25T00:46:29;38.13;;;19.67;;
53293;SDS011;39181;53.440;5.644;2023-01-25T00:48:55;38.75;;;20.35;;
53293;SDS011;39181;53.440;5.644;2023-01-25T00:51:21;43.67;;;20.13;;
53293;SDS011;39181;53.440;5.644;2023-01-25T00:53:48;38.92;;;21.13;;
53293;SDS011;39181;53.440;5.644;2023-01-25T00:56:14;36.05;;;20.38;;
53293;SDS011;39181;53.440;5.644;2023-01-25T00:58:40;38.75;;;20.98;;
53293;SDS011;39181;53.440;5.644;2023-01-25T01:01:06;41.10;;;21.05;;
53293;SDS011;39181;53.440;5.644;2023-01-25T01:03:32;38.28;;;21.38;;
53293;SDS011;39181;53.440;5.644;2023-01-25T01:06:01;38.45;;;19.98;;
53293;SDS011;39181;53.440;5.644;2023-01-25T01:08:37;42.10;;;22.77;;
53293;SDS011;39181;53.440;5.644;2023-01-25T01:11:05;39.35;;;20.90;;
53293;SDS011;39181;53.440;5.644;2023-01-25T01:13:33;41.65;;;21.48;;
53293;SDS011;39181;53.440;5.644;2023-01-25T01:16:02;44.20;;;22.90;;
53293;SDS011;39181;53.440;5.644;2023-01-25T01:18:36;42.63;;;21.25;;
53293;SDS011;39181;53.440;5.644;2023-01-25T01:21:05;38.95;;;19.67;;
53293;SDS011;39181;53.440;5.644;2023-01-25T01:23:34;34.50;;;18.45;;
53293;SDS011;39181;53.440;5.644;2023-01-25T01:26:01;32.97;;;17.88;;
53293;SDS011;39181;53.440;5.644;2023-01-25T01:28:28;34.53;;;18.23;;
53293;SDS011;39181;53.440;5.644;2023-01-25T01:31:01;35.60;;;19.42;;
53293;SDS011;39181;53.440;5.644;2023-01-25T01:33:28;37.95;;;20.00;;
53293;SDS011;39181;53.440;5.644;2023-01-25T01:35:54;35.78;;;19.42;;
53293;SDS011;39181;53.440;5.644;2023-01-25T01:38:20;38.38;;;20.10;;
53293;SDS011;39181;53.440;5.644;2023-01-25T01:40:46;39.55;;;21.23;;
53293;SDS011;39181;53.440;5.644;2023-01-25T01:43:19;35.92;;;20.30;;
53293;SDS011;39181;53.440;5.644;2023-01-25T01:45:50;39.60;;;19.73;;
53293;SDS011;39181;53.440;5.644;2023-01-25T01:50:56;38.85;;;18.88;;
53293;SDS011;39181;53.440;5.644;2023-01-25T01:53:47;33.90;;;17.42;;
53293;SDS011;39181;53.440;5.644;2023-01-25T01:56:21;33.92;;;17.88;;
53293;SDS011;39181;53.440;5.644;2023-01-25T01:58:53;39.05;;;18.13;;
53293;SDS011;39181;53.440;5.644;2023-01-25T02:01:22;33.70;;;17.65;;
53293;SDS011;39181;53.440;5.644;2023-01-25T02:03:48;29.75;;;16.88;;
53293;SDS011;39181;53.440;5.644;2023-01-25T02:06:15;35.05;;;18.27;;
53293;SDS011;39181;53.440;5.644;2023-01-25T02:09:04;36.65;;;19.70;;
53293;SDS011;39181;53.440;5.644;2023-01-25T02:11:30;36.13;;;20.42;;
53293;SDS011;39181;53.440;5.644;2023-01-25T02:13:56;40.50;;;20.42;;
53293;SDS011;39181;53.440;5.644;2023-01-25T02:16:24;37.25;;;21.05;;
53293;SDS011;39181;53.440;5.644;2023-01-25T02:18:52;37.58;;;20.33;;
53293;SDS011;39181;53.440;5.644;2023-01-25T02:21:20;40.17;;;21.80;;
53293;SDS011;39181;53.440;5.644;2023-01-25T02:23:52;35.08;;;20.33;;
53293;SDS011;39181;53.440;5.644;2023-01-25T02:26:28;39.15;;;20.02;;
53293;SDS011;39181;53.440;5.644;2023-01-25T02:29:07;39.85;;;20.60;;
53293;SDS011;39181;53.440;5.644;2023-01-25T02:31:34;35.70;;;18.85;;
53293;SDS011;39181;53.440;5.644;2023-01-25T02:33:59;39.25;;;19.95;;
53293;SDS011;39181;53.440;5.644;2023-01-25T02:38:56;35.92;;;19.10;;
53293;SDS011;39181;53.440;5.644;2023-01-25T02:41:32;36.75;;;19.52;;
53293;SDS011;39181;53.440;5.644;2023-01-25T02:43:59;37.90;;;20.33;;
53293;SDS011;39181;53.440;5.644;2023-01-25T02:46:32;38.70;;;20.27;;
53293;SDS011;39181;53.440;5.644;2023-01-25T02:49:00;27.95;;;15.48;;
53293;SDS011;39181;53.440;5.644;2023-01-25T02:51:27;36.92;;;18.90;;
53293;SDS011;39181;53.440;5.644;2023-01-25T02:53:54;39.05;;;19.77;;
53293;SDS011;39181;53.440;5.644;2023-01-25T02:56:21;37.25;;;20.40;;
53293;SDS011;39181;53.440;5.644;2023-01-25T02:58:47;38.42;;;21.42;;
53293;SDS011;39181;53.440;5.644;2023-01-25T03:01:12;41.33;;;20.88;;
53293;SDS011;39181;53.440;5.644;2023-01-25T03:03:38;37.55;;;21.63;;
53293;SDS011;39181;53.440;5.644;2023-01-25T03:06:05;39.47;;;20.77;;
53293;SDS011;39181;53.440;5.644;2023-01-25T03:08:31;40.88;;;20.40;;
53293;SDS011;39181;53.440;5.644;2023-01-25T03:10:58;35.90;;;18.92;;
53293;SDS011;39181;53.440;5.644;2023-01-25T03:13:25;38.35;;;20.75;;
53293;SDS011;39181;53.440;5.644;2023-01-25T03:15:52;43.67;;;20.80;;
53293;SDS011;39181;53.440;5.644;2023-01-25T03:18:23;39.55;;;21.58;;
53293;SDS011;39181;53.440;5.644;2023-01-25T03:20:49;42.53;;;22.13;;
53293;SDS011;39181;53.440;5.644;2023-01-25T03:23:14;39.05;;;19.88;;
53293;SDS011;39181;53.440;5.644;2023-01-25T03:25:40;41.85;;;21.58;;
53293;SDS011;39181;53.440;5.644;2023-01-25T03:28:06;39.33;;;20.55;;
53293;SDS011;39181;53.440;5.644;2023-01-25T03:30:31;40.05;;;21.23;;
53293;SDS011;39181;53.440;5.644;2023-01-25T03:32:57;38.38;;;20.63;;
53293;SDS011;39181;53.440;5.644;2023-01-25T03:35:22;45.40;;;23.52;;
53293;SDS011;39181;53.440;5.644;2023-01-25T03:37:48;45.92;;;24.02;;
53293;SDS011;39181;53.440;5.644;2023-01-25T03:40:13;51.80;;;24.52;;
53293;SDS011;39181;53.440;5.644;2023-01-25T03:42:39;47.28;;;22.75;;
53293;SDS011;39181;53.440;5.644;2023-01-25T03:45:05;49.45;;;24.35;;
53293;SDS011;39181;53.440;5.644;2023-01-25T03:47:31;48.15;;;23.67;;
53293;SDS011;39181;53.440;5.644;2023-01-25T03:49:56;49.72;;;25.52;;
53293;SDS011;39181;53.440;5.644;2023-01-25T03:52:22;50.17;;;24.20;;
53293;SDS011;39181;53.440;5.644;2023-01-25T03:54:49;51.92;;;24.83;;
53293;SDS011;39181;53.440;5.644;2023-01-25T03:57:15;49.03;;;24.55;;
53293;SDS011;39181;53.440;5.644;2023-01-25T03:59:40;50.67;;;25.98;;
53293;SDS011;39181;53.440;5.644;2023-01-25T04:02:06;55.33;;;26.00;;
53293;SDS011;39181;53.440;5.644;2023-01-25T04:04:31;61.92;;;28.00;;
53293;SDS011;39181;53.440;5.644;2023-01-25T04:06:57;51.47;;;25.48;;
53293;SDS011;39181;53.440;5.644;2023-01-25T04:09:22;56.13;;;27.27;;
53293;SDS011;39181;53.440;5.644;2023-01-25T04:11:48;53.58;;;26.42;;
53293;SDS011;39181;53.440;5.644;2023-01-25T04:14:15;51.40;;;27.33;;
53293;SDS011;39181;53.440;5.644;2023-01-25T04:16:40;55.08;;;27.70;;
53293;SDS011;39181;53.440;5.644;2023-01-25T04:19:06;59.63;;;28.27;;
53293;SDS011;39181;53.440;5.644;2023-01-25T04:21:31;52.67;;;25.75;;
53293;SDS011;39181;53.440;5.644;2023-01-25T04:23:57;57.83;;;28.33;;
53293;SDS011;39181;53.440;5.644;2023-01-25T04:26:23;59.05;;;28.58;;
53293;SDS011;39181;53.440;5.644;2023-01-25T04:28:48;56.92;;;28.45;;
53293;SDS011;39181;53.440;5.644;2023-01-25T04:31:14;48.67;;;25.15;;
53293;SDS011;39181;53.440;5.644;2023-01-25T04:33:40;51.40;;;25.00;;
53293;SDS011;39181;53.440;5.644;2023-01-25T04:36:05;48.63;;;24.77;;
53293;SDS011;39181;53.440;5.644;2023-01-25T04:38:31;49.55;;;24.77;;
53293;SDS011;39181;53.440;5.644;2023-01-25T04:40:57;47.13;;;24.48;;
53293;SDS011;39181;53.440;5.644;2023-01-25T04:43:22;52.78;;;25.20;;
53293;SDS011;39181;53.440;5.644;2023-01-25T04:45:50;57.00;;;29.13;;
53293;SDS011;39181;53.440;5.644;2023-01-25T04:48:16;54.30;;;27.35;;
53293;SDS011;39181;53.440;5.644;2023-01-25T04:50:42;59.22;;;28.83;;
53293;SDS011;39181;53.440;5.644;2023-01-25T04:53:08;59.95;;;29.85;;
53293;SDS011;39181;53.440;5.644;2023-01-25T04:55:35;56.50;;;28.45;;
53293;SDS011;39181;53.440;5.644;2023-01-25T04:58:01;51.78;;;25.00;;
53293;SDS011;39181;53.440;5.644;2023-01-25T05:00:27;49.28;;;25.35;;
53293;SDS011;39181;53.440;5.644;2023-01-25T05:02:53;48.20;;;24.63;;
53293;SDS011;39181;53.440;5.644;2023-01-25T05:05:19;54.05;;;26.63;;
53293;SDS011;39181;53.440;5.644;2023-01-25T05:07:45;52.42;;;27.02;;
53293;SDS011;39181;53.440;5.644;2023-01-25T05:10:10;54.97;;;27.73;;
53293;SDS011;39181;53.440;5.644;2023-01-25T05:12:36;54.85;;;27.75;;
53293;SDS011;39181;53.440;5.644;2023-01-25T05:15:01;55.88;;;27.75;;
53293;SDS011;39181;53.440;5.644;2023-01-25T05:17:27;52.05;;;26.83;;
53293;SDS011;39181;53.440;5.644;2023-01-25T05:19:53;52.95;;;27.95;;
53293;SDS011;39181;53.440;5.644;2023-01-25T05:22:18;53.40;;;27.10;;
53293;SDS011;39181;53.440;5.644;2023-01-25T05:24:47;51.97;;;27.63;;
53293;SDS011;39181;53.440;5.644;2023-01-25T05:27:17;55.25;;;27.85;;
53293;SDS011;39181;53.440;5.644;2023-01-25T05:29:44;51.22;;;25.15;;
53293;SDS011;39181;53.440;5.644;2023-01-25T05:32:17;52.30;;;25.27;;
53293;SDS011;39181;53.440;5.644;2023-01-25T05:34:44;48.75;;;24.30;;
53293;SDS011;39181;53.440;5.644;2023-01-25T05:37:11;54.42;;;24.35;;
53293;SDS011;39181;53.440;5.644;2023-01-25T05:39:38;50.90;;;25.48;;
53293;SDS011;39181;53.440;5.644;2023-01-25T05:42:07;45.40;;;22.73;;
53293;SDS011;39181;53.440;5.644;2023-01-25T05:44:43;45.25;;;24.30;;
53293;SDS011;39181;53.440;5.644;2023-01-25T05:47:13;49.75;;;25.10;;
53293;SDS011;39181;53.440;5.644;2023-01-25T05:49:40;48.25;;;24.70;;
53293;SDS011;39181;53.440;5.644;2023-01-25T05:52:05;57.13;;;24.77;;
53293;SDS011;39181;53.440;5.644;2023-01-25T05:54:31;51.15;;;24.33;;
53293;SDS011;39181;53.440;5.644;2023-01-25T05:56:56;50.08;;;23.85;;
53293;SDS011;39181;53.440;5.644;2023-01-25T05:59:22;51.58;;;23.48;;
53293;SDS011;39181;53.440;5.644;2023-01-25T06:01:47;50.88;;;24.42;;
53293;SDS011;39181;53.440;5.644;2023-01-25T06:04:14;51.47;;;23.60;;
53293;SDS011;39181;53.440;5.644;2023-01-25T06:06:40;46.33;;;24.17;;
53293;SDS011;39181;53.440;5.644;2023-01-25T06:09:05;51.35;;;24.75;;
53293;SDS011;39181;53.440;5.644;2023-01-25T06:11:31;50.28;;;22.80;;
53293;SDS011;39181;53.440;5.644;2023-01-25T06:13:57;53.95;;;24.02;;
53293;SDS011;39181;53.440;5.644;2023-01-25T06:16:22;50.00;;;23.40;;
53293;SDS011;39181;53.440;5.644;2023-01-25T06:18:48;47.33;;;21.38;;
53293;SDS011;39181;53.440;5.644;2023-01-25T06:21:14;50.92;;;22.42;;
53293;SDS011;39181;53.440;5.644;2023-01-25T06:23:39;48.38;;;24.20;;
53293;SDS011;39181;53.440;5.644;2023-01-25T06:26:06;52.08;;;23.83;;
53293;SDS011;39181;53.440;5.644;2023-01-25T06:28:35;56.97;;;23.98;;
53293;SDS011;39181;53.440;5.644;2023-01-25T06:33:34;54.85;;;25.25;;
53293;SDS011;39181;53.440;5.644;2023-01-25T06:36:05;60.05;;;27.00;;
53293;SDS011;39181;53.440;5.644;2023-01-25T06:38:33;58.17;;;25.08;;
53293;SDS011;39181;53.440;5.644;2023-01-25T06:41:00;55.70;;;24.98;;
53293;SDS011;39181;53.440;5.644;2023-01-25T06:43:27;54.50;;;24.23;;
53293;SDS011;39181;53.440;5.644;2023-01-25T06:45:57;56.53;;;24.08;;
53293;SDS011;39181;53.440;5.644;2023-01-25T06:48:23;52.65;;;23.00;;
53293;SDS011;39181;53.440;5.644;2023-01-25T06:50:53;54.78;;;22.27;;
53293;SDS011;39181;53.440;5.644;2023-01-25T06:53:20;51.72;;;21.50;;
53293;SDS011;39181;53.440;5.644;2023-01-25T06:55:45;53.17;;;23.77;;
53293;SDS011;39181;53.440;5.644;2023-01-25T06:58:11;47.15;;;21.38;;
53293;SDS011;39181;53.440;5.644;2023-01-25T07:00:36;60.20;;;24.63;;
53293;SDS011;39181;53.440;5.644;2023-01-25T07:03:02;55.60;;;24.33;;
53293;SDS011;39181;53.440;5.644;2023-01-25T07:05:27;57.63;;;25.00;;
53293;SDS011;39181;53.440;5.644;2023-01-25T07:07:53;58.35;;;24.83;;
53293;SDS011;39181;53.440;5.644;2023-01-25T07:10:18;53.63;;;23.52;;
53293;SDS011;39181;53.440;5.644;2023-01-25T07:12:44;59.30;;;24.30;;
53293;SDS011;39181;53.440;5.644;2023-01-25T07:15:09;53.38;;;24.33;;
53293;SDS011;39181;53.440;5.644;2023-01-25T07:17:35;57.63;;;24.58;;
53293;SDS011;39181;53.440;5.644;2023-01-25T07:20:00;63.53;;;26.05;;
53293;SDS011;39181;53.440;5.644;2023-01-25T07:22:26;51.90;;;22.48;;
53293;SDS011;39181;53.440;5.644;2023-01-25T07:24:51;56.40;;;24.17;;
53293;SDS011;39181;53.440;5.644;2023-01-25T07:27:17;57.60;;;23.98;;
53293;SDS011;39181;53.440;5.644;2023-01-25T07:29:43;54.47;;;24.25;;
53293;SDS011;39181;53.440;5.644;2023-01-25T07:32:10;59.30;;;26.33;;
53293;SDS011;39181;53.440;5.644;2023-01-25T07:34:38;52.03;;;23.02;;
53293;SDS011;39181;53.440;5.644;2023-01-25T07:37:03;55.60;;;24.83;;
53293;SDS011;39181;53.440;5.644;2023-01-25T07:39:29;55.40;;;24.60;;
53293;SDS011;39181;53.440;5.644;2023-01-25T07:41:54;56.22;;;25.98;;
53293;SDS011;39181;53.440;5.644;2023-01-25T07:44:20;56.17;;;24.02;;
53293;SDS011;39181;53.440;5.644;2023-01-25T07:46:45;59.65;;;25.83;;
53293;SDS011;39181;53.440;5.644;2023-01-25T07:49:11;59.13;;;24.80;;
53293;SDS011;39181;53.440;5.644;2023-01-25T07:51:37;64.18;;;24.38;;
53293;SDS011;39181;53.440;5.644;2023-01-25T07:54:03;57.67;;;25.35;;
53293;SDS011;39181;53.440;5.644;2023-01-25T07:58:56;62.85;;;24.85;;
53293;SDS011;39181;53.440;5.644;2023-01-25T08:01:23;61.30;;;25.35;;
53293;SDS011;39181;53.440;5.644;2023-01-25T08:03:50;58.53;;;26.05;;
53293;SDS011;39181;53.440;5.644;2023-01-25T08:06:16;63.03;;;27.17;;
53293;SDS011;39181;53.440;5.644;2023-01-25T08:08:51;57.03;;;25.63;;
53293;SDS011;39181;53.440;5.644;2023-01-25T08:11:27;58.58;;;25.75;;
53293;SDS011;39181;53.440;5.644;2023-01-25T08:13:54;60.60;;;25.63;;
53293;SDS011;39181;53.440;5.644;2023-01-25T08:16:21;56.63;;;25.55;;
53293;SDS011;39181;53.440;5.644;2023-01-25T08:18:50;61.47;;;26.58;;
53293;SDS011;39181;53.440;5.644;2023-01-25T08:21:17;63.75;;;26.75;;
53293;SDS011;39181;53.440;5.644;2023-01-25T08:23:43;65.97;;;25.60;;
53293;SDS011;39181;53.440;5.644;2023-01-25T08:26:10;63.50;;;27.02;;
53293;SDS011;39181;53.440;5.644;2023-01-25T08:28:36;59.15;;;24.38;;
53293;SDS011;39181;53.440;5.644;2023-01-25T08:33:38;64.15;;;24.08;;
53293;SDS011;39181;53.440;5.644;2023-01-25T08:36:04;54.83;;;22.48;;
53293;SDS011;39181;53.440;5.644;2023-01-25T08:38:31;56.42;;;23.65;;
53293;SDS011;39181;53.440;5.644;2023-01-25T08:41:08;61.35;;;25.50;;
53293;SDS011;39181;53.440;5.644;2023-01-25T08:43:35;62.75;;;25.50;;
53293;SDS011;39181;53.440;5.644;2023-01-25T08:46:01;61.10;;;25.75;;
53293;SDS011;39181;53.440;5.644;2023-01-25T08:48:27;61.25;;;24.98;;
53293;SDS011;39181;53.440;5.644;2023-01-25T08:50:53;59.30;;;25.70;;
53293;SDS011;39181;53.440;5.644;2023-01-25T08:53:19;66.78;;;25.45;;
53293;SDS011;39181;53.440;5.644;2023-01-25T08:55:44;64.45;;;25.60;;
53293;SDS011;39181;53.440;5.644;2023-01-25T08:58:11;63.42;;;26.55;;
53293;SDS011;39181;53.440;5.644;2023-01-25T09:00:41;64.80;;;24.30;;
53293;SDS011;39181;53.440;5.644;2023-01-25T09:03:07;57.92;;;25.02;;
53293;SDS011;39181;53.440;5.644;2023-01-25T09:05:35;61.22;;;25.70;;
53293;SDS011;39181;53.440;5.644;2023-01-25T09:08:02;66.10;;;24.73;;
53293;SDS011;39181;53.440;5.644;2023-01-25T09:10:29;57.25;;;24.98;;
53293;SDS011;39181;53.440;5.644;2023-01-25T09:12:54;71.68;;;26.90;;
53293;SDS011;39181;53.440;5.644;2023-01-25T09:15:20;65.68;;;25.65;;
53293;SDS011;39181;53.440;5.644;2023-01-25T09:17:49;65.63;;;25.60;;
53293;SDS011;39181;53.440;5.644;2023-01-25T09:20:15;64.70;;;26.48;;
53293;SDS011;39181;53.440;5.644;2023-01-25T09:22:41;65.88;;;25.88;;
53293;SDS011;39181;53.440;5.644;2023-01-25T09:25:07;66.75;;;25.55;;
53293;SDS011;39181;53.440;5.644;2023-01-25T09:27:33;78.28;;;26.75;;
53293;SDS011;39181;53.440;5.644;2023-01-25T09:29:58;65.22;;;26.63;;
53293;SDS011;39181;53.440;5.644;2023-01-25T09:32:24;73.35;;;26.75;;
53293;SDS011;39181;53.440;5.644;2023-01-25T09:34:49;69.35;;;26.38;;
53293;SDS011;39181;53.440;5.644;2023-01-25T09:37:15;77.47;;;25.77;;
53293;SDS011;39181;53.440;5.644;2023-01-25T09:39:40;78.90;;;27.98;;
53293;SDS011;39181;53.440;5.644;2023-01-25T09:47:50;79.28;;;28.23;;
53293;SDS011;39181;53.440;5.644;2023-01-25T09:50:33;83.82;;;30.30;;
53293;SDS011;39181;53.440;5.644;2023-01-25T09:53:21;76.35;;;27.52;;
53293;SDS011;39181;53.440;5.644;2023-01-25T09:55:54;82.82;;;28.48;;
53293;SDS011;39181;53.440;5.644;2023-01-25T09:58:25;81.22;;;29.00;;
53293;SDS011;39181;53.440;5.644;2023-01-25T10:06:11;87.82;;;28.05;;
53293;SDS011;39181;53.440;5.644;2023-01-25T10:08:51;88.35;;;30.30;;
53293;SDS011;39181;53.440;5.644;2023-01-25T10:11:30;87.25;;;26.83;;
53293;SDS011;39181;53.440;5.644;2023-01-25T10:13:57;93.15;;;28.42;;
53293;SDS011;39181;53.440;5.644;2023-01-25T10:21:41;103.93;;;31.30;;
53293;SDS011;39181;53.440;5.644;2023-01-25T10:24:28;112.25;;;34.83;;
53293;SDS011;39181;53.440;5.644;2023-01-25T10:26:55;91.03;;;28.75;;
53293;SDS011;39181;53.440;5.644;2023-01-25T10:29:32;102.25;;;31.60;;
53293;SDS011;39181;53.440;5.644;2023-01-25T10:34:47;100.43;;;31.83;;
53293;SDS011;39181;53.440;5.644;2023-01-25T10:37:26;118.90;;;34.58;;
53293;SDS011;39181;53.440;5.644;2023-01-25T10:42:20;112.32;;;32.95;;
53293;SDS011;39181;53.440;5.644;2023-01-25T10:44:49;98.80;;;33.03;;
53293;SDS011;39181;53.440;5.644;2023-01-25T10:47:21;116.78;;;35.05;;
53293;SDS011;39181;53.440;5.644;2023-01-25T10:49:53;114.20;;;33.83;;
53293;SDS011;39181;53.440;5.644;2023-01-25T10:52:27;120.90;;;36.33;;
53293;SDS011;39181;53.440;5.644;2023-01-25T10:55:27;115.65;;;34.80;;
53293;SDS011;39181;53.440;5.644;2023-01-25T10:57:53;115.22;;;35.47;;
53293;SDS011;39181;53.440;5.644;2023-01-25T11:02:51;106.25;;;33.90;;
53293;SDS011;39181;53.440;5.644;2023-01-25T11:07:43;112.63;;;35.75;;
53293;SDS011;39181;53.440;5.644;2023-01-25T11:18:21;101.13;;;33.88;;
53293;SDS011;39181;53.440;5.644;2023-01-25T11:21:02;93.25;;;31.95;;
53293;SDS011;39181;53.440;5.644;2023-01-25T11:23:36;102.65;;;34.03;;
53293;SDS011;39181;53.440;5.644;2023-01-25T11:26:18;111.95;;;37.22;;
53293;SDS011;39181;53.440;5.644;2023-01-25T11:28:47;98.03;;;32.03;;
53293;SDS011;39181;53.440;5.644;2023-01-25T11:31:18;99.28;;;34.40;;
53293;SDS011;39181;53.440;5.644;2023-01-25T11:33:45;102.57;;;37.28;;
53293;SDS011;39181;53.440;5.644;2023-01-25T11:36:16;109.20;;;35.05;;
53293;SDS011;39181;53.440;5.644;2023-01-25T11:41:39;92.30;;;32.53;;
53293;SDS011;39181;53.440;5.644;2023-01-25T11:49:57;98.70;;;34.97;;
53293;SDS011;39181;53.440;5.644;2023-01-25T11:52:30;102.33;;;35.90;;
53293;SDS011;39181;53.440;5.644;2023-01-25T11:55:05;96.88;;;35.00;;
53293;SDS011;39181;53.440;5.644;2023-01-25T12:05:37;104.70;;;38.40;;
53293;SDS011;39181;53.440;5.644;2023-01-25T12:14:42;90.05;;;35.53;;
53293;SDS011;39181;53.440;5.644;2023-01-25T12:17:19;85.32;;;35.28;;
53293;SDS011;39181;53.440;5.644;2023-01-25T12:19:51;86.30;;;32.08;;
53293;SDS011;39181;53.440;5.644;2023-01-25T12:30:37;78.28;;;34.28;;
53293;SDS011;39181;53.440;5.644;2023-01-25T12:33:28;70.60;;;32.13;;
53293;SDS011;39181;53.440;5.644;2023-01-25T12:36:22;68.60;;;31.30;;
53293;SDS011;39181;53.440;5.644;2023-01-25T12:39:04;67.88;;;30.73;;
53293;SDS011;39181;53.440;5.644;2023-01-25T12:41:49;66.55;;;30.50;;
53293;SDS011;39181;53.440;5.644;2023-01-25T12:50:20;68.90;;;30.38;;
53293;SDS011;39181;53.440;5.644;2023-01-25T12:52:58;69.70;;;30.60;;
53293;SDS011;39181;53.440;5.644;2023-01-25T12:55:28;75.90;;;32.85;;
53293;SDS011;39181;53.440;5.644;2023-01-25T12:57:59;72.68;;;32.72;;
53293;SDS011;39181;53.440;5.644;2023-01-25T13:00:59;73.35;;;31.80;;
53293;SDS011;39181;53.440;5.644;2023-01-25T13:06:30;72.43;;;31.25;;
53293;SDS011;39181;53.440;5.644;2023-01-25T13:11:46;65.45;;;30.25;;
53293;SDS011;39181;53.440;5.644;2023-01-25T13:16:48;68.22;;;31.17;;
53293;SDS011;39181;53.440;5.644;2023-01-25T13:19:21;68.75;;;30.50;;
53293;SDS011;39181;53.440;5.644;2023-01-25T13:22:08;67.43;;;29.33;;
53293;SDS011;39181;53.440;5.644;2023-01-25T13:25:05;67.32;;;29.38;;
53293;SDS011;39181;53.440;5.644;2023-01-25T13:27:27;65.38;;;30.27;;
53293;SDS011;39181;53.440;5.644;2023-01-25T13:29:57;67.55;;;29.77;;
53293;SDS011;39181;53.440;5.644;2023-01-25T13:34:57;72.77;;;29.53;;
53293;SDS011;39181;53.440;5.644;2023-01-25T13:37:24;69.60;;;31.52;;
53293;SDS011;39181;53.440;5.644;2023-01-25T13:39:55;62.40;;;25.77;;
53293;SDS011;39181;53.440;5.644;2023-01-25T13:45:13;68.85;;;30.83;;
53293;SDS011;39181;53.440;5.644;2023-01-25T13:47:42;68.22;;;31.85;;
53293;SDS011;39181;53.440;5.644;2023-01-25T13:50:23;70.97;;;30.23;;
53293;SDS011;39181;53.440;5.644;2023-01-25T13:55:39;64.68;;;29.95;;
53293;SDS011;39181;53.440;5.644;2023-01-25T13:58:07;61.70;;;29.95;;
53293;SDS011;39181;53.440;5.644;2023-01-25T14:00:51;65.70;;;28.50;;
53293;SDS011;39181;53.440;5.644;2023-01-25T14:03:52;66.47;;;31.58;;
53293;SDS011;39181;53.440;5.644;2023-01-25T14:06:31;70.35;;;30.35;;
53293;SDS011;39181;53.440;5.644;2023-01-25T14:09:02;62.10;;;30.15;;
53293;SDS011;39181;53.440;5.644;2023-01-25T14:11:31;58.47;;;27.52;;
53293;SDS011;39181;53.440;5.644;2023-01-25T14:16:24;62.47;;;29.70;;
53293;SDS011;39181;53.440;5.644;2023-01-25T14:18:51;61.33;;;30.13;;
53293;SDS011;39181;53.440;5.644;2023-01-25T14:23:44;69.93;;;32.08;;
53293;SDS011;39181;53.440;5.644;2023-01-25T14:26:14;66.00;;;31.95;;
53293;SDS011;39181;53.440;5.644;2023-01-25T14:28:44;62.33;;;29.65;;
53293;SDS011;39181;53.440;5.644;2023-01-25T14:31:19;59.80;;;29.13;;
53293;SDS011;39181;53.440;5.644;2023-01-25T14:33:48;59.70;;;28.50;;
53293;SDS011;39181;53.440;5.644;2023-01-25T14:36:22;66.90;;;29.95;;
53293;SDS011;39181;53.440;5.644;2023-01-25T14:38:51;67.68;;;30.88;;
53293;SDS011;39181;53.440;5.644;2023-01-25T14:41:31;67.70;;;32.92;;
53293;SDS011;39181;53.440;5.644;2023-01-25T14:44:08;62.73;;;30.73;;
53293;SDS011;39181;53.440;5.644;2023-01-25T14:46:37;64.03;;;30.10;;
53293;SDS011;39181;53.440;5.644;2023-01-25T14:49:22;66.85;;;31.63;;
53293;SDS011;39181;53.440;5.644;2023-01-25T14:52:24;65.82;;;31.00;;
53293;SDS011;39181;53.440;5.644;2023-01-25T14:54:49;57.63;;;27.98;;
53293;SDS011;39181;53.440;5.644;2023-01-25T14:57:28;60.70;;;28.58;;
53293;SDS011;39181;53.440;5.644;2023-01-25T14:59:55;59.72;;;28.23;;
53293;SDS011;39181;53.440;5.644;2023-01-25T15:02:25;58.28;;;29.52;;
53293;SDS011;39181;53.440;5.644;2023-01-25T15:07:33;61.85;;;30.10;;
53293;SDS011;39181;53.440;5.644;2023-01-25T15:10:01;60.38;;;28.15;;
53293;SDS011;39181;53.440;5.644;2023-01-25T15:12:38;64.63;;;29.60;;
53293;SDS011;39181;53.440;5.644;2023-01-25T15:15:15;60.10;;;28.05;;
53293;SDS011;39181;53.440;5.644;2023-01-25T15:17:46;56.15;;;28.13;;
53293;SDS011;39181;53.440;5.644;2023-01-25T15:22:53;61.80;;;31.85;;
53293;SDS011;39181;53.440;5.644;2023-01-25T15:25:20;61.40;;;30.15;;
53293;SDS011;39181;53.440;5.644;2023-01-25T15:27:46;58.88;;;28.95;;
53293;SDS011;39181;53.440;5.644;2023-01-25T15:30:12;60.28;;;29.45;;
53293;SDS011;39181;53.440;5.644;2023-01-25T15:32:39;59.35;;;30.75;;
53293;SDS011;39181;53.440;5.644;2023-01-25T15:35:11;64.30;;;31.58;;
53293;SDS011;39181;53.440;5.644;2023-01-25T15:37:42;62.67;;;30.17;;
53293;SDS011;39181;53.440;5.644;2023-01-25T15:40:08;70.97;;;31.35;;
53293;SDS011;39181;53.440;5.644;2023-01-25T15:42:34;69.82;;;31.67;;
53293;SDS011;39181;53.440;5.644;2023-01-25T15:45:00;67.00;;;32.10;;
53293;SDS011;39181;53.440;5.644;2023-01-25T15:47:28;66.18;;;31.75;;
53293;SDS011;39181;53.440;5.644;2023-01-25T15:49:54;66.60;;;32.95;;
53293;SDS011;39181;53.440;5.644;2023-01-25T15:52:19;67.25;;;30.98;;
53293;SDS011;39181;53.440;5.644;2023-01-25T15:54:45;67.40;;;32.50;;
53293;SDS011;39181;53.440;5.644;2023-01-25T15:57:19;66.15;;;31.88;;
53293;SDS011;39181;53.440;5.644;2023-01-25T15:59:52;67.55;;;31.17;;
53293;SDS011;39181;53.440;5.644;2023-01-25T16:02:20;72.40;;;33.53;;
53293;SDS011;39181;53.440;5.644;2023-01-25T16:04:46;72.78;;;32.47;;
53293;SDS011;39181;53.440;5.644;2023-01-25T16:07:18;62.33;;;30.45;;
53293;SDS011;39181;53.440;5.644;2023-01-25T16:09:52;70.88;;;33.95;;
53293;SDS011;39181;53.440;5.644;2023-01-25T16:12:18;72.45;;;32.60;;
53293;SDS011;39181;53.440;5.644;2023-01-25T16:14:44;75.35;;;34.08;;
53293;SDS011;39181;53.440;5.644;2023-01-25T16:17:13;72.72;;;34.20;;
53293;SDS011;39181;53.440;5.644;2023-01-25T16:19:41;74.82;;;33.92;;
53293;SDS011;39181;53.440;5.644;2023-01-25T16:22:07;71.93;;;31.95;;
53293;SDS011;39181;53.440;5.644;2023-01-25T16:24:33;76.43;;;34.83;;